EDW2033 ENGM-EDDF
Flight info
| Callsign | EDW2033 |
|---|---|
| Flight time | N/A |
| Altitude | 41000 |
| Route | ENGM/01L VIPPA DCT RAXLU DCT RIMET/N0494F310 T157 KOKEB/N0449F230 T157 KERAX KERAX5A |
| Aircraft | A359/H-SDE2E3GHIJ3J4J5LM1ORWXY/LB1D1 |
Departure
| Time | N/A |
|---|---|
| Airport | Oslo-Gardermoen International Airport (ENGM) |
Arrival
| Time | 2026-04-18 10:29 |
|---|---|
| Airport | Frankfurt Main Airport (EDDF) |
| Time | Latitude | Longitude | Altitude | Speed | Heading |
|---|---|---|---|---|---|
| 2026-04-18 09:05 | 59.00757 | 10.23727 | 31831 ft | 447 kts | 187° |
| 2026-04-18 09:05 | 58.97815 | 10.23335 | 32163 ft | 449 kts | 188° |
| 2026-04-18 09:05 | 58.94696 | 10.22926 | 32505 ft | 451 kts | 187° |
| 2026-04-18 09:06 | 58.91545 | 10.22703 | 32836 ft | 454 kts | 185° |
| 2026-04-18 09:06 | 58.88374 | 10.22674 | 33165 ft | 457 kts | 184° |
| 2026-04-18 09:06 | 58.85194 | 10.22752 | 33619 ft | 456 kts | 183° |
| 2026-04-18 09:06 | 58.82034 | 10.22865 | 34114 ft | 453 kts | 183° |
| 2026-04-18 09:07 | 58.78890 | 10.22971 | 34528 ft | 452 kts | 184° |
| 2026-04-18 09:07 | 58.75742 | 10.23055 | 34804 ft | 454 kts | 184° |
| 2026-04-18 09:07 | 58.72573 | 10.23117 | 35069 ft | 455 kts | 184° |
| 2026-04-18 09:07 | 58.69402 | 10.23163 | 35346 ft | 456 kts | 184° |
| 2026-04-18 09:08 | 58.66226 | 10.23202 | 35625 ft | 457 kts | 184° |
| 2026-04-18 09:08 | 58.63041 | 10.23236 | 35906 ft | 458 kts | 183° |
| 2026-04-18 09:08 | 58.59848 | 10.23271 | 36191 ft | 460 kts | 183° |
| 2026-04-18 09:08 | 58.56645 | 10.23305 | 36455 ft | 461 kts | 183° |
| 2026-04-18 09:09 | 58.53433 | 10.23341 | 36735 ft | 462 kts | 183° |
| 2026-04-18 09:09 | 58.50205 | 10.23377 | 37003 ft | 464 kts | 183° |
| 2026-04-18 09:09 | 58.46974 | 10.23415 | 37271 ft | 465 kts | 183° |
| 2026-04-18 09:09 | 58.43741 | 10.23453 | 37551 ft | 466 kts | 182° |
| 2026-04-18 09:10 | 58.40493 | 10.23491 | 37812 ft | 467 kts | 182° |
| 2026-04-18 09:10 | 58.37242 | 10.23528 | 38070 ft | 468 kts | 182° |
| 2026-04-18 09:10 | 58.33981 | 10.23566 | 38325 ft | 469 kts | 182° |
| 2026-04-18 09:10 | 58.30716 | 10.23604 | 38596 ft | 470 kts | 182° |
| 2026-04-18 09:11 | 58.27447 | 10.23642 | 38829 ft | 471 kts | 182° |
| 2026-04-18 09:11 | 58.24166 | 10.23680 | 39028 ft | 472 kts | 182° |
| 2026-04-18 09:11 | 58.20877 | 10.23717 | 39160 ft | 474 kts | 182° |
| 2026-04-18 09:11 | 58.17577 | 10.23755 | 39356 ft | 474 kts | 182° |
| 2026-04-18 09:12 | 58.14282 | 10.23793 | 39585 ft | 473 kts | 182° |
| 2026-04-18 09:12 | 58.11034 | 10.23830 | 39779 ft | 474 kts | 182° |
| 2026-04-18 09:12 | 58.07734 | 10.23868 | 39971 ft | 474 kts | 182° |
| 2026-04-18 09:12 | 58.04435 | 10.23906 | 40152 ft | 474 kts | 182° |
| 2026-04-18 09:13 | 58.01134 | 10.23943 | 40339 ft | 475 kts | 182° |
| 2026-04-18 09:13 | 57.97830 | 10.23981 | 40521 ft | 475 kts | 182° |
| 2026-04-18 09:13 | 57.94527 | 10.24018 | 40686 ft | 475 kts | 182° |
| 2026-04-18 09:13 | 57.91213 | 10.24055 | 40847 ft | 476 kts | 182° |
| 2026-04-18 09:14 | 57.87899 | 10.24092 | 41007 ft | 476 kts | 182° |
| 2026-04-18 09:14 | 57.84585 | 10.24130 | 41156 ft | 477 kts | 182° |
| 2026-04-18 09:14 | 57.77937 | 10.24204 | 41193 ft | 477 kts | 182° |
| 2026-04-18 09:15 | 57.71292 | 10.24279 | 41193 ft | 477 kts | 182° |
| 2026-04-18 09:15 | 57.64661 | 10.24353 | 41190 ft | 477 kts | 182° |
| 2026-04-18 09:16 | 57.58021 | 10.24427 | 41192 ft | 477 kts | 182° |
| 2026-04-18 09:16 | 57.51381 | 10.24500 | 41193 ft | 477 kts | 182° |
| 2026-04-18 09:17 | 57.44747 | 10.24573 | 41193 ft | 477 kts | 182° |
| 2026-04-18 09:17 | 57.38152 | 10.24646 | 41189 ft | 476 kts | 182° |
| 2026-04-18 09:18 | 57.31521 | 10.24718 | 41185 ft | 476 kts | 182° |
| 2026-04-18 09:18 | 57.24897 | 10.24790 | 41179 ft | 476 kts | 182° |
| 2026-04-18 09:19 | 57.18265 | 10.24861 | 41175 ft | 476 kts | 182° |
| 2026-04-18 09:19 | 57.11631 | 10.24932 | 41174 ft | 476 kts | 182° |
| 2026-04-18 09:20 | 57.05000 | 10.25004 | 41171 ft | 476 kts | 182° |
| 2026-04-18 09:20 | 56.98368 | 10.25075 | 41171 ft | 476 kts | 182° |
| 2026-04-18 09:21 | 56.91743 | 10.25146 | 41182 ft | 476 kts | 182° |
| 2026-04-18 09:21 | 56.85117 | 10.25216 | 41188 ft | 476 kts | 182° |
| 2026-04-18 09:22 | 56.78478 | 10.25287 | 41190 ft | 477 kts | 182° |
| 2026-04-18 09:22 | 56.71844 | 10.25357 | 41184 ft | 476 kts | 182° |
| 2026-04-18 09:23 | 56.65215 | 10.25427 | 41187 ft | 476 kts | 182° |
| 2026-04-18 09:23 | 56.58588 | 10.25496 | 41185 ft | 476 kts | 182° |
| 2026-04-18 09:24 | 56.51957 | 10.25566 | 41184 ft | 476 kts | 182° |
| 2026-04-18 09:24 | 56.45326 | 10.25635 | 41187 ft | 476 kts | 182° |
| 2026-04-18 09:25 | 56.38704 | 10.25703 | 41183 ft | 476 kts | 182° |
| 2026-04-18 09:25 | 56.32078 | 10.25772 | 41186 ft | 476 kts | 182° |
| 2026-04-18 09:26 | 56.25455 | 10.25840 | 41184 ft | 476 kts | 182° |
| 2026-04-18 09:26 | 56.18826 | 10.25908 | 41185 ft | 476 kts | 182° |
| 2026-04-18 09:27 | 56.12243 | 10.25975 | 41184 ft | 476 kts | 182° |
| 2026-04-18 09:27 | 56.05615 | 10.26043 | 41184 ft | 476 kts | 182° |
| 2026-04-18 09:28 | 55.98978 | 10.26111 | 41185 ft | 477 kts | 182° |
| 2026-04-18 09:28 | 55.92344 | 10.26179 | 41184 ft | 477 kts | 182° |
| 2026-04-18 09:29 | 55.85704 | 10.26245 | 41182 ft | 477 kts | 182° |
| 2026-04-18 09:29 | 55.79069 | 10.26312 | 41176 ft | 477 kts | 182° |
| 2026-04-18 09:30 | 55.72430 | 10.26378 | 41186 ft | 477 kts | 182° |
| 2026-04-18 09:30 | 55.65787 | 10.26445 | 41177 ft | 478 kts | 182° |
| 2026-04-18 09:31 | 55.59140 | 10.26512 | 41186 ft | 478 kts | 182° |
| 2026-04-18 09:31 | 55.52489 | 10.26582 | 41178 ft | 478 kts | 182° |
| 2026-04-18 09:32 | 55.45836 | 10.26645 | 41178 ft | 478 kts | 182° |
| 2026-04-18 09:32 | 55.39173 | 10.26711 | 41181 ft | 478 kts | 182° |
| 2026-04-18 09:33 | 55.32557 | 10.26783 | 41181 ft | 478 kts | 182° |
| 2026-04-18 09:33 | 55.25897 | 10.26848 | 41178 ft | 478 kts | 182° |
| 2026-04-18 09:34 | 55.19239 | 10.26908 | 41179 ft | 479 kts | 182° |
| 2026-04-18 09:34 | 55.12571 | 10.26969 | 41174 ft | 479 kts | 182° |
| 2026-04-18 09:35 | 55.05912 | 10.27033 | 41172 ft | 478 kts | 182° |
| 2026-04-18 09:35 | 54.99249 | 10.27098 | 41171 ft | 478 kts | 182° |
| 2026-04-18 09:36 | 54.92600 | 10.27162 | 41170 ft | 478 kts | 182° |
| 2026-04-18 09:36 | 54.85943 | 10.27226 | 41167 ft | 478 kts | 182° |
| 2026-04-18 09:37 | 54.79280 | 10.27290 | 41165 ft | 478 kts | 182° |
| 2026-04-18 09:37 | 54.72631 | 10.27353 | 41166 ft | 478 kts | 182° |
| 2026-04-18 09:38 | 54.65977 | 10.27344 | 41161 ft | 478 kts | 182° |
| 2026-04-18 09:38 | 54.59330 | 10.27258 | 41158 ft | 478 kts | 183° |
| 2026-04-18 09:39 | 54.52684 | 10.27141 | 41156 ft | 478 kts | 183° |
| 2026-04-18 09:39 | 54.46043 | 10.27021 | 41157 ft | 478 kts | 183° |
| 2026-04-18 09:40 | 54.39398 | 10.26905 | 41154 ft | 477 kts | 183° |
| 2026-04-18 09:40 | 54.32753 | 10.26792 | 41151 ft | 477 kts | 183° |
| 2026-04-18 09:41 | 54.26153 | 10.26681 | 41154 ft | 477 kts | 183° |
| 2026-04-18 09:41 | 54.19510 | 10.26568 | 41160 ft | 477 kts | 183° |
| 2026-04-18 09:42 | 54.12865 | 10.26456 | 41153 ft | 477 kts | 183° |
| 2026-04-18 09:42 | 54.06231 | 10.26343 | 41157 ft | 477 kts | 183° |
| 2026-04-18 09:43 | 53.99591 | 10.26231 | 41150 ft | 477 kts | 183° |
| 2026-04-18 09:43 | 53.92951 | 10.26122 | 41154 ft | 477 kts | 183° |
| 2026-04-18 09:44 | 53.86312 | 10.26011 | 41146 ft | 477 kts | 183° |
| 2026-04-18 09:44 | 53.79670 | 10.25901 | 41144 ft | 477 kts | 183° |
| 2026-04-18 09:45 | 53.73033 | 10.25790 | 41155 ft | 477 kts | 183° |
| 2026-04-18 09:45 | 53.66394 | 10.25680 | 41149 ft | 477 kts | 183° |
| 2026-04-18 09:46 | 53.59758 | 10.25571 | 41151 ft | 477 kts | 183° |
| 2026-04-18 09:46 | 53.53121 | 10.25463 | 41153 ft | 477 kts | 183° |
| 2026-04-18 09:47 | 53.47604 | 10.25372 | 41154 ft | 477 kts | 183° |
| 2026-04-18 09:47 | 53.40969 | 10.25263 | 41150 ft | 477 kts | 183° |
| 2026-04-18 09:48 | 53.34335 | 10.25154 | 41147 ft | 477 kts | 183° |
| 2026-04-18 09:48 | 53.27701 | 10.25047 | 41145 ft | 477 kts | 183° |
| 2026-04-18 09:49 | 53.21068 | 10.24941 | 41148 ft | 477 kts | 183° |
| 2026-04-18 09:49 | 53.14433 | 10.24834 | 41150 ft | 476 kts | 184° |
| 2026-04-18 09:50 | 53.07800 | 10.24727 | 41153 ft | 476 kts | 183° |
| 2026-04-18 09:50 | 53.01170 | 10.24621 | 41160 ft | 477 kts | 183° |
| 2026-04-18 09:51 | 52.94581 | 10.24516 | 41156 ft | 477 kts | 183° |
| 2026-04-18 09:51 | 52.87948 | 10.24410 | 41154 ft | 477 kts | 183° |
| 2026-04-18 09:52 | 52.81308 | 10.24303 | 41154 ft | 477 kts | 183° |
| 2026-04-18 09:52 | 52.74671 | 10.24198 | 41156 ft | 477 kts | 183° |
| 2026-04-18 09:53 | 52.68037 | 10.24093 | 41171 ft | 477 kts | 183° |
| 2026-04-18 09:53 | 52.61394 | 10.23989 | 41176 ft | 477 kts | 183° |
| 2026-04-18 09:54 | 52.54757 | 10.23885 | 41178 ft | 477 kts | 183° |
| 2026-04-18 09:54 | 52.48115 | 10.23782 | 41178 ft | 477 kts | 183° |
| 2026-04-18 09:55 | 52.41470 | 10.23678 | 41174 ft | 477 kts | 183° |
| 2026-04-18 09:55 | 52.34867 | 10.23575 | 41175 ft | 477 kts | 183° |
| 2026-04-18 09:56 | 52.28234 | 10.23471 | 41177 ft | 477 kts | 183° |
| 2026-04-18 09:56 | 52.21582 | 10.23369 | 41178 ft | 477 kts | 183° |
| 2026-04-18 09:57 | 52.14939 | 10.23267 | 41175 ft | 477 kts | 183° |
| 2026-04-18 09:57 | 52.08289 | 10.23165 | 41176 ft | 478 kts | 183° |
| 2026-04-18 09:58 | 52.01645 | 10.23064 | 41173 ft | 478 kts | 183° |
| 2026-04-18 09:58 | 51.94999 | 10.22962 | 41173 ft | 478 kts | 183° |
| 2026-04-18 09:59 | 51.88354 | 10.22861 | 41171 ft | 478 kts | 183° |
| 2026-04-18 10:00 | 51.78377 | 10.22709 | 41173 ft | 478 kts | 183° |
| 2026-04-18 10:00 | 51.71723 | 10.22609 | 41171 ft | 478 kts | 183° |
| 2026-04-18 10:01 | 51.65069 | 10.22508 | 41171 ft | 478 kts | 183° |
| 2026-04-18 10:01 | 51.58425 | 10.22409 | 41175 ft | 478 kts | 183° |
| 2026-04-18 10:02 | 51.51771 | 10.22308 | 41169 ft | 478 kts | 183° |
| 2026-04-18 10:02 | 51.45114 | 10.22208 | 41173 ft | 479 kts | 183° |
| 2026-04-18 10:03 | 51.38457 | 10.22107 | 41169 ft | 479 kts | 183° |
| 2026-04-18 10:03 | 51.31799 | 10.22006 | 41119 ft | 477 kts | 183° |
| 2026-04-18 10:03 | 51.28533 | 10.21949 | 40473 ft | 463 kts | 183° |
| 2026-04-18 10:04 | 51.25314 | 10.21889 | 39252 ft | 462 kts | 184° |
| 2026-04-18 10:04 | 51.22133 | 10.21822 | 37696 ft | 466 kts | 184° |
| 2026-04-18 10:04 | 51.18838 | 10.21746 | 35998 ft | 469 kts | 184° |
| 2026-04-18 10:04 | 51.15603 | 10.21667 | 34356 ft | 473 kts | 184° |
| 2026-04-18 10:05 | 51.12269 | 10.21579 | 32463 ft | 476 kts | 184° |
| 2026-04-18 10:05 | 51.08989 | 10.21490 | 30629 ft | 478 kts | 184° |
| 2026-04-18 10:05 | 51.05660 | 10.21403 | 28487 ft | 479 kts | 184° |
| 2026-04-18 10:05 | 51.02335 | 10.21326 | 26955 ft | 473 kts | 183° |
| 2026-04-18 10:06 | 50.99061 | 10.21265 | 26473 ft | 470 kts | 183° |
| 2026-04-18 10:06 | 50.95786 | 10.21206 | 26077 ft | 470 kts | 183° |
| 2026-04-18 10:06 | 50.92538 | 10.21151 | 25446 ft | 465 kts | 183° |
| 2026-04-18 10:06 | 50.89308 | 10.21097 | 24784 ft | 462 kts | 183° |
| 2026-04-18 10:07 | 50.86112 | 10.20914 | 24127 ft | 457 kts | 188° |
| 2026-04-18 10:07 | 50.83036 | 10.19886 | 23456 ft | 450 kts | 200° |
| 2026-04-18 10:07 | 50.80254 | 10.17746 | 22750 ft | 441 kts | 216° |
| 2026-04-18 10:07 | 50.78003 | 10.14585 | 22134 ft | 431 kts | 231° |
| 2026-04-18 10:08 | 50.76321 | 10.10717 | 21535 ft | 422 kts | 240° |
| 2026-04-18 10:08 | 50.74912 | 10.06698 | 20923 ft | 417 kts | 244° |
| 2026-04-18 10:08 | 50.73630 | 10.02619 | 20561 ft | 416 kts | 246° |
| 2026-04-18 10:08 | 50.72383 | 9.98460 | 20309 ft | 420 kts | 246° |
| 2026-04-18 10:09 | 50.71131 | 9.94295 | 20062 ft | 420 kts | 246° |
| 2026-04-18 10:09 | 50.69861 | 9.90153 | 19817 ft | 418 kts | 245° |
| 2026-04-18 10:09 | 50.68576 | 9.86052 | 19576 ft | 417 kts | 245° |
| 2026-04-18 10:09 | 50.67278 | 9.81967 | 19335 ft | 416 kts | 245° |
| 2026-04-18 10:10 | 50.65974 | 9.77909 | 18920 ft | 414 kts | 244° |
| 2026-04-18 10:10 | 50.64619 | 9.73916 | 18448 ft | 412 kts | 240° |
| 2026-04-18 10:10 | 50.62930 | 9.70270 | 17915 ft | 412 kts | 230° |
| 2026-04-18 10:10 | 50.60849 | 9.67190 | 17366 ft | 411 kts | 219° |
| 2026-04-18 10:11 | 50.58417 | 9.64845 | 16864 ft | 411 kts | 207° |
| 2026-04-18 10:11 | 50.55785 | 9.63102 | 16210 ft | 410 kts | 203° |
| 2026-04-18 10:11 | 50.53142 | 9.61477 | 15499 ft | 406 kts | 205° |
| 2026-04-18 10:11 | 50.50671 | 9.59401 | 14814 ft | 399 kts | 216° |
| 2026-04-18 10:12 | 50.48572 | 9.56609 | 14144 ft | 393 kts | 228° |
| 2026-04-18 10:12 | 50.46938 | 9.53226 | 13412 ft | 387 kts | 240° |
| 2026-04-18 10:12 | 50.45810 | 9.49439 | 12688 ft | 382 kts | 251° |
| 2026-04-18 10:12 | 50.45021 | 9.45488 | 11978 ft | 377 kts | 254° |
| 2026-04-18 10:13 | 50.44303 | 9.41545 | 11263 ft | 374 kts | 254° |
| 2026-04-18 10:13 | 50.43599 | 9.37699 | 10728 ft | 366 kts | 254° |
| 2026-04-18 10:13 | 50.42883 | 9.33840 | 10448 ft | 369 kts | 254° |
| 2026-04-18 10:13 | 50.42157 | 9.30003 | 10206 ft | 366 kts | 253° |
| 2026-04-18 10:14 | 50.41434 | 9.26207 | 9978 ft | 357 kts | 253° |
| 2026-04-18 10:14 | 50.40685 | 9.22670 | 9560 ft | 326 kts | 250° |
| 2026-04-18 10:14 | 50.39946 | 9.19459 | 9086 ft | 301 kts | 250° |
| 2026-04-18 10:14 | 50.39254 | 9.16466 | 8504 ft | 284 kts | 250° |
| 2026-04-18 10:15 | 50.38599 | 9.13608 | 7828 ft | 276 kts | 250° |
| 2026-04-18 10:15 | 50.37922 | 9.10846 | 7317 ft | 268 kts | 244° |
| 2026-04-18 10:15 | 50.36926 | 9.08381 | 7062 ft | 269 kts | 229° |
| 2026-04-18 10:15 | 50.35471 | 9.06543 | 6811 ft | 269 kts | 208° |
| 2026-04-18 10:16 | 50.33688 | 9.05781 | 6571 ft | 267 kts | 184° |
| 2026-04-18 10:16 | 50.31866 | 9.06287 | 6312 ft | 270 kts | 159° |
| 2026-04-18 10:16 | 50.30344 | 9.07997 | 6178 ft | 273 kts | 134° |
| 2026-04-18 10:16 | 50.29265 | 9.10446 | 6126 ft | 276 kts | 120° |
| 2026-04-18 10:17 | 50.28564 | 9.13237 | 6012 ft | 276 kts | 107° |
| 2026-04-18 10:17 | 50.28260 | 9.16212 | 5995 ft | 278 kts | 95° |
| 2026-04-18 10:17 | 50.28363 | 9.19198 | 5997 ft | 280 kts | 82° |
| 2026-04-18 10:17 | 50.28881 | 9.22127 | 5998 ft | 281 kts | 69° |
| 2026-04-18 10:18 | 50.29799 | 9.24870 | 6002 ft | 281 kts | 59° |
| 2026-04-18 10:18 | 50.30746 | 9.27499 | 5995 ft | 281 kts | 65° |
| 2026-04-18 10:18 | 50.31451 | 9.30334 | 5990 ft | 281 kts | 77° |
| 2026-04-18 10:18 | 50.31573 | 9.33350 | 5993 ft | 278 kts | 100° |
| 2026-04-18 10:19 | 50.30904 | 9.36135 | 5995 ft | 273 kts | 125° |
| 2026-04-18 10:19 | 50.29580 | 9.38221 | 5994 ft | 270 kts | 148° |
| 2026-04-18 10:19 | 50.27891 | 9.39451 | 5995 ft | 268 kts | 162° |
| 2026-04-18 10:19 | 50.26073 | 9.39988 | 5990 ft | 266 kts | 180° |
| 2026-04-18 10:20 | 50.24281 | 9.39424 | 5995 ft | 264 kts | 204° |
| 2026-04-18 10:20 | 50.22800 | 9.37765 | 5992 ft | 264 kts | 227° |
| 2026-04-18 10:20 | 50.21861 | 9.35321 | 6009 ft | 265 kts | 246° |
| 2026-04-18 10:20 | 50.21227 | 9.32620 | 5992 ft | 265 kts | 250° |
| 2026-04-18 10:21 | 50.20633 | 9.29897 | 5996 ft | 265 kts | 250° |
| 2026-04-18 10:21 | 50.20034 | 9.27179 | 5999 ft | 265 kts | 250° |
| 2026-04-18 10:21 | 50.19428 | 9.24471 | 5992 ft | 264 kts | 250° |
| 2026-04-18 10:21 | 50.18817 | 9.21756 | 6001 ft | 265 kts | 250° |
| 2026-04-18 10:22 | 50.18199 | 9.19052 | 5992 ft | 265 kts | 249° |
| 2026-04-18 10:22 | 50.17574 | 9.16361 | 5994 ft | 265 kts | 249° |
| 2026-04-18 10:22 | 50.16941 | 9.13656 | 6002 ft | 265 kts | 249° |
| 2026-04-18 10:22 | 50.16307 | 9.10960 | 5991 ft | 265 kts | 249° |
| 2026-04-18 10:23 | 50.15693 | 9.08257 | 5994 ft | 261 kts | 250° |
| 2026-04-18 10:23 | 50.15234 | 9.06101 | 5959 ft | 248 kts | 250° |
| 2026-04-18 10:23 | 50.14688 | 9.03634 | 5967 ft | 235 kts | 249° |
| 2026-04-18 10:23 | 50.14139 | 9.01263 | 5976 ft | 229 kts | 249° |
| 2026-04-18 10:24 | 50.13611 | 8.99009 | 5861 ft | 220 kts | 249° |
| 2026-04-18 10:24 | 50.13073 | 8.96753 | 5598 ft | 220 kts | 249° |
| 2026-04-18 10:24 | 50.12542 | 8.94544 | 5278 ft | 223 kts | 248° |
| 2026-04-18 10:24 | 50.11997 | 8.92265 | 4909 ft | 226 kts | 249° |
| 2026-04-18 10:25 | 50.11448 | 8.89947 | 4568 ft | 230 kts | 249° |
| 2026-04-18 10:25 | 50.10890 | 8.87598 | 4210 ft | 231 kts | 249° |
| 2026-04-18 10:25 | 50.10333 | 8.85258 | 3901 ft | 230 kts | 249° |
| 2026-04-18 10:25 | 50.09781 | 8.82931 | 3586 ft | 228 kts | 249° |
| 2026-04-18 10:26 | 50.09237 | 8.80653 | 3319 ft | 220 kts | 250° |
| 2026-04-18 10:26 | 50.08715 | 8.78449 | 3016 ft | 213 kts | 250° |
| 2026-04-18 10:26 | 50.08209 | 8.76315 | 2749 ft | 207 kts | 250° |
| 2026-04-18 10:26 | 50.07718 | 8.74262 | 2481 ft | 196 kts | 250° |
| 2026-04-18 10:27 | 50.07260 | 8.72342 | 2217 ft | 182 kts | 250° |
| 2026-04-18 10:27 | 50.06838 | 8.70558 | 1974 ft | 167 kts | 250° |
| 2026-04-18 10:27 | 50.06455 | 8.68947 | 1744 ft | 152 kts | 250° |
| 2026-04-18 10:27 | 50.06096 | 8.67426 | 1569 ft | 149 kts | 251° |
| 2026-04-18 10:28 | 50.05736 | 8.65914 | 1365 ft | 149 kts | 250° |
| 2026-04-18 10:28 | 50.05379 | 8.64420 | 1175 ft | 149 kts | 250° |
| 2026-04-18 10:28 | 50.05015 | 8.62892 | 988 ft | 149 kts | 251° |
| 2026-04-18 10:28 | 50.04647 | 8.61364 | 784 ft | 151 kts | 251° |
| 2026-04-18 10:29 | 50.04277 | 8.59818 | 556 ft | 154 kts | 252° |
| 2026-04-18 10:29 | 50.03915 | 8.58276 | 384 ft | 148 kts | 251° |
| 2026-04-18 10:29 | 50.03599 | 8.56951 | 370 ft | 100 kts | 250° |
| 2026-04-18 10:29 | 50.03451 | 8.56331 | 370 ft | 41 kts | 250° |
| 2026-04-18 10:30 | 50.03445 | 8.55974 | 369 ft | 25 kts | 281° |
| 2026-04-18 10:30 | 50.03457 | 8.55869 | 369 ft | 0 kts | 279° |
| 2026-04-18 10:31 | 50.03458 | 8.55867 | 369 ft | 1 kts | 279° |
| 2026-04-18 10:31 | 50.03460 | 8.55848 | 369 ft | 8 kts | 279° |
| 2026-04-18 10:31 | 50.03476 | 8.55696 | 374 ft | 16 kts | 279° |
| 2026-04-18 10:31 | 50.03494 | 8.55509 | 374 ft | 18 kts | 271° |
| 2026-04-18 10:32 | 50.03459 | 8.55334 | 373 ft | 18 kts | 249° |
| 2026-04-18 10:32 | 50.03410 | 8.55136 | 373 ft | 21 kts | 249° |
| 2026-04-18 10:32 | 50.03357 | 8.54913 | 374 ft | 23 kts | 250° |
| 2026-04-18 10:32 | 50.03298 | 8.54662 | 373 ft | 24 kts | 250° |
| 2026-04-18 10:33 | 50.03312 | 8.54484 | 374 ft | 16 kts | 331° |
| 2026-04-18 10:33 | 50.03428 | 8.54413 | 369 ft | 21 kts | 339° |
| 2026-04-18 10:33 | 50.03521 | 8.54358 | 370 ft | 20 kts | 340° |
| 2026-04-18 10:33 | 50.03595 | 8.54318 | 372 ft | 0 kts | 340° |
| 2026-04-18 10:34 | 50.03595 | 8.54317 | 372 ft | 1 kts | 340° |
| 2026-04-18 10:35 | 50.03629 | 8.54309 | 372 ft | 6 kts | 5° |
| 2026-04-18 10:35 | 50.03654 | 8.54334 | 376 ft | 7 kts | 45° |
| 2026-04-18 10:35 | 50.03700 | 8.54384 | 374 ft | 9 kts | 14° |
| 2026-04-18 10:35 | 50.03760 | 8.54358 | 376 ft | 10 kts | 339° |
| 2026-04-18 10:36 | 50.03836 | 8.54343 | 374 ft | 12 kts | 24° |
| 2026-04-18 10:36 | 50.03886 | 8.54455 | 377 ft | 14 kts | 70° |
| 2026-04-18 10:36 | 50.03922 | 8.54612 | 372 ft | 17 kts | 71° |
| 2026-04-18 10:36 | 50.03964 | 8.54792 | 375 ft | 19 kts | 70° |
| 2026-04-18 10:37 | 50.04013 | 8.55001 | 373 ft | 22 kts | 70° |
| 2026-04-18 10:37 | 50.04063 | 8.55205 | 372 ft | 9 kts | 69° |
| 2026-04-18 10:37 | 50.04066 | 8.55216 | 371 ft | 0 kts | 69° |
| 2026-04-18 10:39 | 50.04072 | 8.55242 | 376 ft | 9 kts | 69° |
| 2026-04-18 10:39 | 50.04107 | 8.55385 | 376 ft | 16 kts | 70° |
| 2026-04-18 10:39 | 50.04149 | 8.55565 | 373 ft | 19 kts | 70° |
| 2026-04-18 10:39 | 50.04195 | 8.55758 | 375 ft | 18 kts | 70° |
| 2026-04-18 10:40 | 50.04244 | 8.55931 | 375 ft | 17 kts | 51° |
| 2026-04-18 10:40 | 50.04333 | 8.55937 | 377 ft | 13 kts | 340° |
| 2026-04-18 10:40 | 50.04411 | 8.55929 | 377 ft | 7 kts | 19° |
| 2026-04-18 10:40 | 50.04426 | 8.55957 | 377 ft | 3 kts | 76° |
| 2026-04-18 10:41 | 50.04433 | 8.55973 | 377 ft | 1 kts | 39° |
| 2026-04-18 10:41 | 50.04458 | 8.55964 | 377 ft | 7 kts | 347° |
| 2026-04-18 10:41 | 50.04517 | 8.55959 | 374 ft | 10 kts | 5° |
| 2026-04-18 10:41 | 50.04590 | 8.55972 | 375 ft | 10 kts | 348° |
| 2026-04-18 10:42 | 50.04640 | 8.55945 | 373 ft | 0 kts | 339° |
| 2026-04-18 10:42 | 50.04641 | 8.55944 | 373 ft | 0 kts | 339° |